createdAt,value
2022-08-31T00:03:20.965Z,101443.63
2022-08-31T00:11:21.353Z,101434.47
2022-08-31T00:14:20.401Z,101437.59
2022-08-31T00:17:49.634Z,101441.59
2022-08-31T00:24:27.378Z,101458.53
2022-08-31T00:27:22.810Z,101455.41
2022-08-31T00:30:18.816Z,101445.00
2022-08-31T00:33:11.606Z,101445.78
2022-08-31T00:36:45.347Z,101444.06
2022-08-31T00:40:22.950Z,101450.13
2022-08-31T00:44:18.533Z,101448.72
2022-08-31T00:52:48.100Z,101445.22
2022-08-31T00:56:38.774Z,101442.69
2022-08-31T01:04:42.470Z,101446.78
2022-08-31T01:15:20.502Z,101435.97
2022-08-31T01:18:07.624Z,101448.84
2022-08-31T01:21:14.577Z,101450.47
2022-08-31T01:26:56.082Z,101451.75
2022-08-31T01:29:51.843Z,101449.19
2022-08-31T01:33:12.044Z,101456.38
2022-08-31T01:36:11.163Z,101460.19
2022-08-31T01:43:02.630Z,101458.94
2022-08-31T01:45:57.261Z,101474.22
2022-08-31T01:48:49.731Z,101470.00
2022-08-31T01:51:35.344Z,101454.41
2022-08-31T01:54:25.217Z,101460.94
2022-08-31T01:57:10.248Z,101462.09
2022-08-31T02:00:52.211Z,101466.28
2022-08-31T02:03:39.695Z,101474.31
2022-08-31T02:06:33.872Z,101463.81
2022-08-31T02:09:13.509Z,101463.94
2022-08-31T02:12:29.831Z,101465.84
2022-08-31T02:14:37.694Z,101464.31
2022-08-31T02:17:18.793Z,101466.72
2022-08-31T02:20:21.175Z,101469.78
2022-08-31T02:25:56.974Z,101464.56
2022-08-31T02:31:28.156Z,101456.22
2022-08-31T02:34:05.785Z,101453.63
2022-08-31T02:36:40.522Z,101453.06
2022-08-31T02:39:43.521Z,101457.53
2022-08-31T02:46:06.490Z,101452.03
2022-08-31T02:49:35.496Z,101455.56
2022-08-31T02:52:23.951Z,101445.19
2022-08-31T02:54:56.254Z,101438.78
2022-08-31T02:57:26.368Z,101442.59
2022-08-31T03:00:05.996Z,101434.28
2022-08-31T03:02:35.892Z,101446.41
2022-08-31T03:05:13.257Z,101443.75
2022-08-31T03:07:45.640Z,101444.16
2022-08-31T03:10:24.224Z,101434.63
2022-08-31T03:13:01.760Z,101442.44
2022-08-31T03:15:30.215Z,101438.34
2022-08-31T03:18:06.640Z,101439.78
2022-08-31T03:20:37.967Z,101442.75
2022-08-31T03:23:08.788Z,101435.38
2022-08-31T03:25:38.123Z,101442.53
2022-08-31T03:28:07.055Z,101441.78
2022-08-31T03:30:41.426Z,101441.78
2022-08-31T03:33:11.377Z,101441.13
2022-08-31T03:35:43.808Z,101444.91
2022-08-31T03:38:16.115Z,101444.91
2022-08-31T03:40:44.467Z,101440.44
2022-08-31T03:43:12.369Z,101443.59
2022-08-31T03:45:41.980Z,101442.28
2022-08-31T03:48:12.780Z,101443.13
2022-08-31T03:50:43.261Z,101451.13
2022-08-31T03:53:20.368Z,101446.63
2022-08-31T03:55:50.228Z,101446.03
2022-08-31T03:58:17.144Z,101451.22
2022-08-31T04:00:45.093Z,101454.91
2022-08-31T04:03:29.548Z,101456.16
2022-08-31T04:06:19.425Z,101467.97
2022-08-31T04:09:12.731Z,101472.38
2022-08-31T04:11:58.427Z,101472.94
2022-08-31T04:14:57.451Z,101482.03
2022-08-31T04:17:57.219Z,101471.91
2022-08-31T04:20:43.234Z,101472.47
2022-08-31T04:23:10.126Z,101482.28
2022-08-31T04:25:42.061Z,101486.19
2022-08-31T04:28:10.330Z,101484.38
2022-08-31T04:30:38.850Z,101490.66
2022-08-31T04:33:05.701Z,101489.16
2022-08-31T04:35:32.850Z,101496.31
2022-08-31T04:37:59.668Z,101492.97
2022-08-31T04:40:27.499Z,101496.13
2022-08-31T04:42:55.554Z,101488.78
2022-08-31T04:45:27.183Z,101486.31
2022-08-31T04:47:56.476Z,101491.06
2022-08-31T04:50:23.567Z,101491.84
2022-08-31T04:53:07.813Z,101495.47
2022-08-31T04:55:40.190Z,101500.88
2022-08-31T04:58:07.608Z,101505.56
2022-08-31T05:00:35.918Z,101504.22
2022-08-31T05:03:23.229Z,101512.91
2022-08-31T05:05:53.751Z,101514.13
2022-08-31T05:08:20.694Z,101514.69
2022-08-31T05:10:48.712Z,101510.59
2022-08-31T05:13:15.707Z,101511.06
2022-08-31T05:15:44.195Z,101507.84
2022-08-31T05:18:14.356Z,101507.25
2022-08-31T05:20:48.445Z,101506.97
2022-08-31T05:23:15.433Z,101509.81
2022-08-31T05:25:43.800Z,101508.59
2022-08-31T05:28:11.011Z,101502.66
2022-08-31T05:30:38.117Z,101500.91
2022-08-31T05:33:08.576Z,101501.84
2022-08-31T05:35:37.734Z,101501.25
2022-08-31T05:38:04.617Z,101498.38
2022-08-31T05:40:31.428Z,101507.06
2022-08-31T05:42:59.670Z,101511.06
2022-08-31T05:45:26.963Z,101504.72
2022-08-31T05:47:53.928Z,101508.84
2022-08-31T05:50:20.805Z,101513.00
2022-08-31T05:52:47.737Z,101511.19
2022-08-31T05:55:14.662Z,101504.41
2022-08-31T05:57:43.904Z,101503.13
2022-08-31T06:00:11.173Z,101509.78
2022-08-31T06:02:43.062Z,101498.13
2022-08-31T06:05:12.820Z,101506.41
2022-08-31T06:07:40.092Z,101504.47
2022-08-31T06:10:11.493Z,101507.47
2022-08-31T06:12:39.903Z,101507.81
2022-08-31T06:15:07.713Z,101509.44
2022-08-31T06:17:35.559Z,101501.06
2022-08-31T06:20:05.396Z,101508.13
2022-08-31T06:22:36.877Z,101506.00
2022-08-31T06:25:08.409Z,101502.44
2022-08-31T06:27:38.931Z,101510.06
2022-08-31T06:30:07.981Z,101507.56
2022-08-31T06:32:35.145Z,101510.34
2022-08-31T06:35:04.095Z,101512.91
2022-08-31T06:37:49.332Z,101512.38
2022-08-31T06:40:35.039Z,101502.91
2022-08-31T06:43:26.476Z,101509.31
2022-08-31T06:45:58.121Z,101515.69
2022-08-31T06:48:44.067Z,101514.03
2022-08-31T06:51:13.238Z,101518.94
2022-08-31T06:53:42.551Z,101517.28
2022-08-31T06:56:28.562Z,101520.69
2022-08-31T06:59:18.333Z,101517.81
2022-08-31T07:02:08.288Z,101518.53
2022-08-31T07:24:35.464Z,101550.19
2022-08-31T07:27:10.225Z,101547.03
2022-08-31T07:29:46.127Z,101545.97
2022-08-31T07:32:16.143Z,101549.88
2022-08-31T07:34:44.178Z,101545.66
2022-08-31T07:37:38.146Z,101557.13
2022-08-31T07:40:25.899Z,101552.16
2022-08-31T07:42:52.941Z,101551.84
2022-08-31T07:45:27.944Z,101562.28
2022-08-31T07:47:59.979Z,101549.00
2022-08-31T07:50:37.489Z,101550.63
2022-08-31T07:53:27.517Z,101553.06
2022-08-31T07:56:12.112Z,101552.72
2022-08-31T07:58:42.837Z,101552.72
2022-08-31T08:01:11.586Z,101562.25
2022-08-31T08:03:41.089Z,101560.06
2022-08-31T08:06:32.425Z,101576.09
2022-08-31T08:09:22.359Z,101555.78
2022-08-31T08:12:08.754Z,101566.91
2022-08-31T08:14:59.276Z,101567.03
2022-08-31T08:17:37.416Z,101569.59
2022-08-31T08:20:13.340Z,101581.00
2022-08-31T08:22:54.365Z,101576.72
2022-08-31T08:25:34.834Z,101570.34
2022-08-31T08:28:39.201Z,101566.06
2022-08-31T08:31:16.769Z,101574.25
2022-08-31T08:33:43.910Z,101568.38
2022-08-31T08:36:11.611Z,101567.28
2022-08-31T08:38:41.198Z,101564.72
2022-08-31T08:41:14.511Z,101573.13
2022-08-31T08:43:50.027Z,101570.69
2022-08-31T08:46:34.833Z,101568.25
2022-08-31T08:49:22.874Z,101575.34
2022-08-31T08:51:56.844Z,101570.06
2022-08-31T08:54:31.671Z,101566.41
2022-08-31T08:57:01.393Z,101573.13
2022-08-31T08:59:29.087Z,101574.59
2022-08-31T09:02:02.268Z,101570.72
2022-08-31T09:04:45.612Z,101556.88
2022-08-31T09:07:44.707Z,101567.41
2022-08-31T09:10:30.383Z,101564.19
2022-08-31T09:13:13.652Z,101566.84
2022-08-31T09:15:47.370Z,101568.88
2022-08-31T09:18:53.220Z,101562.38
2022-08-31T09:21:25.597Z,101558.84
2022-08-31T09:24:06.906Z,101561.69
2022-08-31T09:27:19.668Z,101555.28
2022-08-31T09:30:02.184Z,101555.28
2022-08-31T09:32:32.552Z,101559.63
2022-08-31T09:35:01.899Z,101555.97
2022-08-31T09:37:33.836Z,101561.38
2022-08-31T09:40:32.230Z,101561.50
2022-08-31T09:43:25.387Z,101559.78
2022-08-31T09:46:05.123Z,101556.91
2022-08-31T09:48:48.541Z,101557.75
2022-08-31T09:51:29.719Z,101556.19
2022-08-31T09:54:35.314Z,101545.19
2022-08-31T09:57:05.392Z,101561.19
2022-08-31T09:59:38.568Z,101553.63
2022-08-31T10:02:26.280Z,101553.59
2022-08-31T10:04:56.100Z,101544.56
2022-08-31T10:07:32.009Z,101552.00
2022-08-31T10:10:08.343Z,101555.41
2022-08-31T10:12:58.319Z,101551.53
2022-08-31T10:15:31.113Z,101554.25
2022-08-31T10:18:15.771Z,101538.31
2022-08-31T10:21:07.833Z,101545.81
2022-08-31T10:23:54.491Z,101535.91
2022-08-31T10:26:37.506Z,101541.38
2022-08-31T10:29:20.754Z,101543.19
2022-08-31T10:31:52.373Z,101538.25
2022-08-31T10:34:40.197Z,101534.59
2022-08-31T10:37:12.791Z,101532.91
2022-08-31T10:39:52.910Z,101550.09
2022-08-31T10:42:42.924Z,101541.41
2022-08-31T10:45:16.380Z,101540.13
2022-08-31T10:47:49.134Z,101541.16
2022-08-31T10:50:23.422Z,101531.63
2022-08-31T10:53:02.483Z,101526.81
2022-08-31T10:55:50.862Z,101527.69
2022-08-31T10:58:35.518Z,101533.94
2022-08-31T11:01:23.437Z,101525.38
2022-08-31T11:04:09.250Z,101532.06
2022-08-31T11:06:47.283Z,101526.81
2022-08-31T11:09:20.457Z,101522.84
2022-08-31T11:11:58.179Z,101527.81
2022-08-31T11:14:44.096Z,101523.81
2022-08-31T11:17:24.890Z,101516.88
2022-08-31T11:20:25.336Z,101512.00
2022-08-31T11:23:29.087Z,101510.91
2022-08-31T11:26:06.347Z,101508.91
2022-08-31T11:28:37.506Z,101507.34
2022-08-31T11:31:20.455Z,101510.91
2022-08-31T11:34:12.186Z,101516.44
2022-08-31T11:36:58.461Z,101510.63
2022-08-31T11:39:46.177Z,101499.50
2022-08-31T11:42:18.841Z,101502.38
2022-08-31T11:44:47.442Z,101489.41
2022-08-31T11:47:29.452Z,101495.94
2022-08-31T11:49:59.399Z,101499.19
2022-08-31T11:52:43.396Z,101494.22
2022-08-31T11:55:23.010Z,101487.19
2022-08-31T11:58:10.084Z,101492.38
2022-08-31T12:00:54.152Z,101489.50
2022-08-31T12:03:43.281Z,101480.97
2022-08-31T12:06:28.519Z,101478.34
2022-08-31T12:09:15.107Z,101474.84
2022-08-31T12:11:47.796Z,101473.66
2022-08-31T12:14:40.828Z,101467.22
2022-08-31T12:17:24.840Z,101470.22
2022-08-31T12:20:02.676Z,101462.91
2022-08-31T12:23:16.737Z,101463.59
2022-08-31T12:26:09.198Z,101462.72
2022-08-31T12:29:14.256Z,101466.91
2022-08-31T12:31:41.961Z,101457.00
2022-08-31T12:34:18.689Z,101448.75
2022-08-31T12:36:45.543Z,101449.69
2022-08-31T12:39:23.477Z,101456.88
2022-08-31T12:42:03.842Z,101455.47
2022-08-31T12:44:37.329Z,101462.50
2022-08-31T12:47:06.395Z,101457.31
2022-08-31T12:50:08.461Z,101447.88
2022-08-31T12:52:44.394Z,101444.19
2022-08-31T12:55:33.766Z,101450.50
2022-08-31T12:58:42.016Z,101447.16
2022-08-31T13:01:12.426Z,101449.81
2022-08-31T13:03:46.846Z,101445.06
2022-08-31T13:06:30.445Z,101434.44
2022-08-31T13:08:59.165Z,101439.50
2022-08-31T13:11:35.179Z,101438.00
2022-08-31T13:14:18.309Z,101444.00
2022-08-31T13:16:54.162Z,101437.44
2022-08-31T13:19:26.052Z,101437.38
2022-08-31T13:21:55.726Z,101434.38
2022-08-31T13:24:29.063Z,101425.91
2022-08-31T13:27:06.365Z,101428.34
2022-08-31T13:29:41.255Z,101432.19
2022-08-31T13:32:08.880Z,101421.56
2022-08-31T13:34:39.410Z,101421.69
2022-08-31T13:37:06.186Z,101427.06
2022-08-31T13:39:39.206Z,101419.47
2022-08-31T13:42:32.294Z,101419.81
2022-08-31T13:45:09.898Z,101422.09
2022-08-31T13:47:41.722Z,101421.72
2022-08-31T13:50:27.161Z,101426.34
2022-08-31T13:53:24.898Z,101419.38
2022-08-31T13:55:44.846Z,101417.00
2022-08-31T13:58:28.011Z,101411.53
2022-08-31T14:01:24.610Z,101417.16
2022-08-31T14:03:58.283Z,101401.34
2022-08-31T14:06:38.958Z,101405.88
2022-08-31T14:09:17.013Z,101408.47
2022-08-31T14:11:53.517Z,101407.41
2022-08-31T14:14:30.061Z,101408.97
2022-08-31T14:16:58.431Z,101417.53
2022-08-31T14:19:34.148Z,101417.16
2022-08-31T14:22:33.162Z,101410.72
2022-08-31T14:25:01.004Z,101407.25
2022-08-31T14:27:29.424Z,101401.75
2022-08-31T14:29:57.726Z,101407.44
2022-08-31T14:32:25.826Z,101402.59
2022-08-31T14:34:53.496Z,101413.75
2022-08-31T14:37:20.332Z,101404.19
2022-08-31T14:39:50.692Z,101402.03
2022-08-31T14:42:20.905Z,101401.66
2022-08-31T14:44:53.837Z,101402.34
2022-08-31T14:47:27.834Z,101402.75
2022-08-31T14:49:58.923Z,101399.34
2022-08-31T14:52:28.074Z,101398.41
2022-08-31T14:54:54.755Z,101400.72
2022-08-31T14:57:25.465Z,101405.81
2022-08-31T14:59:56.988Z,101402.44
2022-08-31T15:02:24.930Z,101397.22
2022-08-31T15:04:51.860Z,101395.84
2022-08-31T15:07:19.850Z,101397.31
2022-08-31T15:09:47.923Z,101405.75
2022-08-31T15:12:17.473Z,101398.22
2022-08-31T15:14:47.314Z,101401.50
2022-08-31T15:17:19.067Z,101395.25
2022-08-31T15:19:48.176Z,101397.16
2022-08-31T15:22:16.007Z,101403.78
2022-08-31T15:24:45.019Z,101404.34
2022-08-31T15:27:14.504Z,101402.13
2022-08-31T15:29:42.721Z,101394.75
2022-08-31T15:32:16.742Z,101398.69
2022-08-31T15:34:50.097Z,101395.63
2022-08-31T15:37:17.362Z,101396.59
2022-08-31T15:39:49.015Z,101409.84
2022-08-31T15:42:20.775Z,101396.94
2022-08-31T15:44:58.360Z,101408.38
2022-08-31T15:47:46.453Z,101406.38
2022-08-31T15:50:13.449Z,101402.22
2022-08-31T15:52:51.255Z,101404.66
2022-08-31T15:55:23.675Z,101396.47
2022-08-31T15:57:54.412Z,101394.75
2022-08-31T16:00:27.262Z,101393.34
2022-08-31T16:02:57.436Z,101388.25
2022-08-31T16:05:28.457Z,101397.81
2022-08-31T16:07:55.781Z,101395.25
2022-08-31T16:10:23.536Z,101393.22
2022-08-31T16:12:52.122Z,101383.72
2022-08-31T16:15:22.252Z,101387.84
2022-08-31T16:17:51.397Z,101386.19
2022-08-31T16:20:18.151Z,101383.53
2022-08-31T16:22:45.569Z,101380.28
2022-08-31T16:25:14.380Z,101382.56
2022-08-31T16:27:41.744Z,101371.81
2022-08-31T16:30:10.819Z,101382.63
2022-08-31T16:32:37.628Z,101382.88
2022-08-31T16:35:05.775Z,101383.34
2022-08-31T16:37:33.570Z,101382.34
2022-08-31T16:40:00.485Z,101382.97
2022-08-31T16:42:27.338Z,101384.78
2022-08-31T16:44:59.739Z,101380.53
2022-08-31T16:47:29.293Z,101390.91
2022-08-31T16:49:56.999Z,101375.31
2022-08-31T16:52:26.832Z,101375.88
2022-08-31T16:54:56.047Z,101385.69
2022-08-31T16:57:29.124Z,101381.00
2022-08-31T16:59:57.464Z,101386.16
2022-08-31T17:02:25.153Z,101382.34
2022-08-31T17:04:53.680Z,101391.00
2022-08-31T17:07:23.252Z,101397.69
2022-08-31T17:09:50.342Z,101389.16
2022-08-31T17:12:21.855Z,101392.16
2022-08-31T17:14:51.464Z,101394.13
2022-08-31T17:17:23.548Z,101394.69
2022-08-31T17:19:52.211Z,101396.06
2022-08-31T17:22:27.071Z,101403.44
2022-08-31T17:24:57.706Z,101402.75
2022-08-31T17:27:25.961Z,101402.88
2022-08-31T17:29:55.369Z,101399.19
2022-08-31T17:32:25.039Z,101398.44
2022-08-31T17:34:54.578Z,101400.84
2022-08-31T17:37:25.246Z,101401.97
2022-08-31T17:39:53.153Z,101392.16
2022-08-31T17:42:21.293Z,101404.53
2022-08-31T17:44:50.957Z,101402.81
2022-08-31T17:47:19.151Z,101398.59
2022-08-31T17:49:46.915Z,101405.16
2022-08-31T17:52:14.145Z,101404.28
2022-08-31T17:54:43.408Z,101409.94
2022-08-31T17:57:14.005Z,101417.69
2022-08-31T17:59:44.251Z,101408.72
2022-08-31T18:02:13.951Z,101409.66
2022-08-31T18:04:41.919Z,101413.47
2022-08-31T18:07:09.516Z,101421.25
2022-08-31T18:09:40.424Z,101419.69
2022-08-31T18:12:08.306Z,101423.59
2022-08-31T18:14:36.342Z,101422.56
2022-08-31T18:17:04.769Z,101432.69
2022-08-31T18:19:33.478Z,101424.09
2022-08-31T18:22:01.262Z,101431.56
2022-08-31T18:24:28.212Z,101431.91
2022-08-31T18:26:58.932Z,101430.31
2022-08-31T18:29:26.877Z,101435.88
2022-08-31T18:31:57.754Z,101438.19
2022-08-31T18:34:25.613Z,101447.09
2022-08-31T18:36:53.586Z,101447.50
2022-08-31T18:39:47.854Z,101452.56
2022-08-31T18:42:28.211Z,101443.75
2022-08-31T18:45:13.972Z,101444.84
2022-08-31T18:47:40.746Z,101453.81
2022-08-31T18:50:08.733Z,101445.00
2022-08-31T18:52:39.509Z,101448.31
2022-08-31T18:55:06.908Z,101448.81
2022-08-31T18:57:33.932Z,101451.66
2022-08-31T19:00:10.183Z,101444.69
2022-08-31T19:02:43.228Z,101464.34
2022-08-31T19:05:12.324Z,101457.91
2022-08-31T19:07:41.401Z,101447.88
2022-08-31T19:10:13.248Z,101453.50
2022-08-31T19:12:42.877Z,101452.28
2022-08-31T19:15:11.791Z,101452.28
2022-08-31T19:17:41.841Z,101453.28
2022-08-31T19:20:10.598Z,101463.53
2022-08-31T19:22:38.101Z,101469.41
2022-08-31T19:25:09.218Z,101467.69
2022-08-31T19:27:36.852Z,101465.25
2022-08-31T19:30:08.388Z,101457.19
2022-08-31T19:32:36.936Z,101462.69
2022-08-31T19:35:07.790Z,101460.97
2022-08-31T19:37:37.070Z,101465.03
2022-08-31T19:40:05.644Z,101464.16
2022-08-31T19:45:23.593Z,101467.94
2022-08-31T19:47:51.150Z,101469.91
2022-08-31T19:50:18.071Z,101471.38
2022-08-31T19:52:45.045Z,101465.25
2022-08-31T19:55:13.234Z,101462.94
2022-08-31T19:57:43.573Z,101465.63
2022-08-31T20:00:11.938Z,101459.88
2022-08-31T20:03:27.831Z,101460.59
2022-08-31T20:06:25.659Z,101464.25
2022-08-31T20:09:46.598Z,101470.09
2022-08-31T20:13:01.590Z,101472.50
2022-08-31T20:16:15.685Z,101469.94
2022-08-31T20:18:51.671Z,101469.44
2022-08-31T20:21:25.594Z,101475.91
2022-08-31T20:24:05.423Z,101469.69
2022-08-31T20:26:53.625Z,101477.56
2022-08-31T20:29:46.250Z,101476.97
2022-08-31T20:32:26.066Z,101482.78
2022-08-31T20:35:15.827Z,101480.06
2022-08-31T20:38:04.751Z,101483.09
2022-08-31T20:41:09.754Z,101487.63
2022-08-31T20:43:37.196Z,101486.34
2022-08-31T20:49:27.420Z,101489.84
2022-08-31T20:52:04.357Z,101488.69
2022-08-31T20:54:32.552Z,101488.94
2022-08-31T20:57:12.295Z,101484.75
2022-08-31T20:59:39.323Z,101488.28
2022-08-31T21:02:26.000Z,101489.47
2022-08-31T21:05:40.333Z,101491.75
2022-08-31T21:08:07.699Z,101488.75
2022-08-31T21:10:37.578Z,101486.28
2022-08-31T21:13:21.671Z,101498.19
2022-08-31T21:15:55.432Z,101493.06
2022-08-31T21:18:23.357Z,101491.72
2022-08-31T21:21:15.957Z,101487.63
2022-08-31T21:23:52.307Z,101493.75
2022-08-31T21:26:22.814Z,101498.03
2022-08-31T21:28:53.216Z,101498.34
2022-08-31T21:31:30.611Z,101495.97
2022-08-31T21:34:03.235Z,101495.09
2022-08-31T21:36:33.891Z,101493.41
2022-08-31T21:39:16.912Z,101489.03
2022-08-31T21:41:52.937Z,101490.94
2022-08-31T21:44:27.745Z,101487.97
2022-08-31T21:46:57.808Z,101499.31
2022-08-31T21:49:25.229Z,101500.63
2022-08-31T21:51:56.910Z,101500.09
2022-08-31T21:54:31.690Z,101510.81
2022-08-31T21:59:51.900Z,101504.28
2022-08-31T22:02:23.701Z,101514.22
2022-08-31T22:04:51.080Z,101508.56
2022-08-31T22:07:18.097Z,101503.44
2022-08-31T22:09:57.601Z,101504.38
2022-08-31T22:12:29.835Z,101512.19
2022-08-31T22:15:13.779Z,101503.19
2022-08-31T22:18:04.748Z,101517.78
2022-08-31T22:20:45.736Z,101510.28
2022-08-31T22:23:13.156Z,101519.16
2022-08-31T22:25:44.430Z,101511.34
2022-08-31T22:28:12.587Z,101518.00
2022-08-31T22:31:00.997Z,101518.75
2022-08-31T22:33:47.353Z,101519.38
2022-08-31T22:36:42.727Z,101521.09
2022-08-31T22:39:19.792Z,101516.16
2022-08-31T22:41:51.486Z,101522.06
2022-08-31T22:44:25.093Z,101532.34
2022-08-31T22:47:07.749Z,101536.22
2022-08-31T22:49:45.911Z,101526.78
2022-08-31T22:52:17.805Z,101521.44
2022-08-31T22:54:45.101Z,101526.97
2022-08-31T22:57:30.125Z,101522.91
2022-08-31T23:00:02.548Z,101520.88
2022-08-31T23:02:41.331Z,101520.97
2022-08-31T23:05:25.027Z,101525.56
2022-08-31T23:08:25.726Z,101521.63
2022-08-31T23:11:07.443Z,101527.19
2022-08-31T23:13:55.728Z,101524.63
2022-08-31T23:17:09.875Z,101521.28
2022-08-31T23:19:47.162Z,101517.75
2022-08-31T23:22:26.504Z,101511.13
2022-08-31T23:25:09.330Z,101505.75
2022-08-31T23:27:56.791Z,101512.00
2022-08-31T23:30:38.630Z,101509.84
2022-08-31T23:33:18.078Z,101507.16
2022-08-31T23:35:48.036Z,101510.03
2022-08-31T23:38:15.490Z,101498.69
2022-08-31T23:40:59.607Z,101497.53
2022-08-31T23:43:35.803Z,101503.59
2022-08-31T23:46:19.410Z,101495.91
2022-08-31T23:49:06.515Z,101498.69
2022-08-31T23:51:36.666Z,101500.19
2022-08-31T23:54:08.055Z,101502.22
2022-08-31T23:57:03.525Z,101505.00
2022-08-31T23:59:56.915Z,101506.41
